Europa — FM4447 — position and weather

sailwx.info

Track history (hours):
 
Tides and Currents Weather Stations Pressure Air Temp Water Temp Dewpoint Dewpoint Depression Visibility Wind Speed Wind Dir Waves Ship Positions

Europa

Last reported at 2018-May-26 05:30 UTC. Time now 2018-Jun-22 23:00 UTC.
Position N 43°25' E 004°44'.
Warning: this ship's position is 27 days out of date.

Length 80 m.

Type: Ship. MMSI: 226007930.

Date/timePositionNaut miles runAvg speedWind from/ knotsBaromVisibWave heightAir tempDewpointWater temp
2018-May-26 05:30N 43°25' E 004°44'5 0.1
2018-May-24 15:03N 43°23' E 004°50'1 0.0
2018-May-22 19:56N 43°23' E 004°49'0 0.3
2018-May-22 18:49N 43°23' E 004°48'0 0.2
2018-May-22 18:27N 43°23' E 004°48'0 0.4
2018-May-22 17:59N 43°23' E 004°49'0 0.2
2018-May-22 16:24N 43°23' E 004°49'0 0.3
2018-May-22 15:27N 43°23' E 004°48'0 0.0
2018-May-22 14:02N 43°23' E 004°48'0 0.2
2018-May-22 13:36N 43°23' E 004°48'1 4.5
2018-May-22 13:24N 43°23' E 004°47'2 5.6
2018-May-22 13:00N 43°25' E 004°45'1 0.6
2018-May-22 10:53N 43°26' E 004°44'2 5.3
2018-May-22 10:30N 43°24' E 004°45'3 4.2
2018-May-22 09:54N 43°23' E 004°48'3 6.4
2018-May-22 09:30N 43°24' E 004°45'1 1.7
2018-May-22 08:58N 43°25' E 004°45'1 2.4
2018-May-22 08:30N 43°26' E 004°44'0 0.3
2018-May-22 07:44N 43°26' E 004°44'0 0.0
2018-May-22 05:47N 43°26' E 004°44'0 0.0
2018-May-22 05:26N 43°26' E 004°44'0 0.0
2018-May-22 04:58N 43°26' E 004°44'0 0.0
2018-May-22 00:56N 43°26' E 004°44'0 0.0
2018-May-22 00:26N 43°26' E 004°44'0 0.0
2018-May-21 23:48N 43°26' E 004°44'0 0.0
2018-May-21 23:16N 43°26' E 004°44'0 0.0
2018-May-21 22:44N 43°26' E 004°44'0 0.0
2018-May-21 22:29N 43°26' E 004°44'0 0.0
2018-May-21 19:09N 43°26' E 004°44'0 0.0
2018-May-21 17:47N 43°26' E 004°44'0 0.0
2018-May-21 17:20N 43°26' E 004°44'0 0.0
2018-May-21 16:47N 43°26' E 004°44'  
Track history (hours):
 
Tides and Currents Weather Stations Pressure Air Temp Water Temp Dewpoint Dewpoint Depression Visibility Wind Speed Wind Dir Waves Ship Positions

Europa

Last reported at 2018-May-26 05:30 UTC. Time now 2018-Jun-22 23:00 UTC.
Position N 43°25' E 004°44'.
Warning: this ship's position is 27 days out of date.

Length 80 m.

Type: Ship. MMSI: 226007930.

Date/timePositionNaut miles runAvg speedWind from/ knotsBaromVisibWave heightAir tempDewpointWater temp
2018-May-26 05:30N 43°25' E 004°44'5 0.1
2018-May-24 15:03N 43°23' E 004°50'1 0.0
2018-May-22 19:56N 43°23' E 004°49'0 0.3
2018-May-22 18:49N 43°23' E 004°48'0 0.2
2018-May-22 18:27N 43°23' E 004°48'0 0.4
2018-May-22 17:59N 43°23' E 004°49'0 0.2
2018-May-22 16:24N 43°23' E 004°49'0 0.3
2018-May-22 15:27N 43°23' E 004°48'0 0.0
2018-May-22 14:02N 43°23' E 004°48'0 0.2
2018-May-22 13:36N 43°23' E 004°48'1 4.5
2018-May-22 13:24N 43°23' E 004°47'2 5.6
2018-May-22 13:00N 43°25' E 004°45'1 0.6
2018-May-22 10:53N 43°26' E 004°44'2 5.3
2018-May-22 10:30N 43°24' E 004°45'3 4.2
2018-May-22 09:54N 43°23' E 004°48'3 6.4
2018-May-22 09:30N 43°24' E 004°45'1 1.7
2018-May-22 08:58N 43°25' E 004°45'1 2.4
2018-May-22 08:30N 43°26' E 004°44'0 0.3
2018-May-22 07:44N 43°26' E 004°44'0 0.0
2018-May-22 05:47N 43°26' E 004°44'0 0.0
2018-May-22 05:26N 43°26' E 004°44'0 0.0
2018-May-22 04:58N 43°26' E 004°44'0 0.0
2018-May-22 00:56N 43°26' E 004°44'0 0.0
2018-May-22 00:26N 43°26' E 004°44'0 0.0
2018-May-21 23:48N 43°26' E 004°44'0 0.0
2018-May-21 23:16N 43°26' E 004°44'0 0.0
2018-May-21 22:44N 43°26' E 004°44'0 0.0
2018-May-21 22:29N 43°26' E 004°44'0 0.0
2018-May-21 19:09N 43°26' E 004°44'0 0.0
2018-May-21 17:47N 43°26' E 004°44'0 0.0
2018-May-21 17:20N 43°26' E 004°44'0 0.0
2018-May-21 16:47N 43°26' E 004°44'  

Dump ship's entire track history